createdAt,value
2023-04-17T00:00:54.985Z,505.5385
2023-04-17T00:01:56.650Z,505.2308
2023-04-17T00:02:58.379Z,505.2308
2023-04-17T00:04:00.117Z,506.2308
2023-04-17T00:05:01.644Z,505.2308
2023-04-17T00:06:03.206Z,508.0000
2023-04-17T00:07:04.851Z,503.3077
2023-04-17T00:08:06.527Z,503.0769
2023-04-17T00:09:08.168Z,504.1538
2023-04-17T00:10:09.891Z,506.2308
2023-04-17T00:11:11.405Z,508.2308
2023-04-17T00:12:13.068Z,508.6923
2023-04-17T00:13:14.728Z,512.1539
2023-04-17T00:14:16.347Z,511.0000
2023-04-17T00:15:18.015Z,511.5385
2023-04-17T00:16:19.662Z,512.0000
2023-04-17T00:17:21.331Z,513.7692
2023-04-17T00:18:22.908Z,513.0000
2023-04-17T00:19:24.545Z,509.4615
2023-04-17T00:20:26.247Z,508.4615
2023-04-17T00:21:27.845Z,510.6923
2023-04-17T00:22:29.489Z,510.8462
2023-04-17T00:23:31.145Z,511.5385
2023-04-17T00:24:32.760Z,511.4615
2023-04-17T00:25:34.426Z,511.4615
2023-04-17T00:26:36.041Z,511.6923
2023-04-17T00:27:37.720Z,512.9231
2023-04-17T00:28:39.326Z,510.8462
2023-04-17T00:29:41.003Z,509.3077
2023-04-17T00:30:42.664Z,508.1538
2023-04-17T00:31:44.315Z,507.4615
2023-04-17T00:32:45.960Z,507.1538
2023-04-17T00:33:47.549Z,509.5385
2023-04-17T00:34:49.188Z,509.9231
2023-04-17T00:35:50.905Z,510.7692
2023-04-17T00:36:52.470Z,510.1538
2023-04-17T00:37:54.112Z,507.3846
2023-04-17T00:38:55.780Z,506.7692
2023-04-17T00:39:57.409Z,507.0769
2023-04-17T00:40:59.091Z,506.8462
2023-04-17T00:42:00.735Z,508.3846
2023-04-17T00:43:02.352Z,512.6154
2023-04-17T00:44:03.975Z,510.8462
2023-04-17T00:45:05.651Z,508.5385
2023-04-17T00:46:07.303Z,509.8462
2023-04-17T00:47:08.921Z,510.3846
2023-04-17T00:48:10.534Z,510.6154
2023-04-17T00:49:12.313Z,506.9231
2023-04-17T00:50:13.797Z,508.6154
2023-04-17T00:51:15.507Z,512.0769
2023-04-17T00:52:17.069Z,513.0000
2023-04-17T00:53:18.747Z,513.0769
2023-04-17T00:54:20.369Z,513.3077
2023-04-17T00:55:22.011Z,515.5385
2023-04-17T00:56:23.682Z,516.1539
2023-04-17T00:57:25.327Z,516.5385
2023-04-17T00:58:26.945Z,515.9231
2023-04-17T00:59:28.568Z,513.6154
2023-04-17T01:00:30.238Z,511.7692
2023-04-17T01:01:31.959Z,510.6923
2023-04-17T01:02:33.670Z,511.3077
2023-04-17T01:03:35.414Z,513.0769
2023-04-17T01:04:36.801Z,514.5385
2023-04-17T01:05:38.493Z,513.3077
2023-04-17T01:06:40.119Z,513.1539
2023-04-17T01:07:41.763Z,512.4615
2023-04-17T01:08:43.379Z,512.6923
2023-04-17T01:09:44.987Z,514.1539
2023-04-17T01:10:46.645Z,516.6154
2023-04-17T01:11:48.290Z,518.4615
2023-04-17T01:12:49.981Z,519.1539
2023-04-17T01:13:51.665Z,518.1539
2023-04-17T01:14:53.340Z,516.3077
2023-04-17T01:15:54.997Z,514.3077
2023-04-17T01:16:56.678Z,515.2308
2023-04-17T01:17:58.311Z,517.5385
2023-04-17T01:18:59.901Z,515.0000
2023-04-17T01:20:01.541Z,513.7692
2023-04-17T01:21:03.184Z,514.0000
2023-04-17T01:22:04.856Z,514.5385
2023-04-17T01:23:06.483Z,515.4615
2023-04-17T01:24:08.084Z,516.7692
2023-04-17T01:25:09.779Z,516.2308
2023-04-17T01:26:11.381Z,517.3846
2023-04-17T01:27:13.090Z,516.3846
2023-04-17T01:28:14.682Z,516.5385
2023-04-17T01:29:16.326Z,515.8461
2023-04-17T01:30:17.951Z,513.3846
2023-04-17T01:31:19.651Z,513.8461
2023-04-17T01:32:21.281Z,515.9231
2023-04-17T01:33:22.882Z,513.0000
2023-04-17T01:34:24.527Z,511.1538
2023-04-17T01:35:26.167Z,510.8462
2023-04-17T01:36:27.805Z,513.0769
2023-04-17T01:37:29.504Z,508.3846
2023-04-17T01:38:31.061Z,507.9231
2023-04-17T01:39:32.729Z,510.6154
2023-04-17T01:40:34.377Z,510.5385
2023-04-17T01:41:36.025Z,508.6154
2023-04-17T01:42:37.696Z,510.4615
2023-04-17T01:43:39.356Z,510.4615
2023-04-17T01:44:40.946Z,516.5385
2023-04-17T01:45:42.578Z,515.4615
2023-04-17T01:46:44.278Z,513.9231
2023-04-17T01:47:46.462Z,514.1539
2023-04-17T01:48:47.550Z,515.4615
2023-04-17T01:49:49.193Z,515.2308
2023-04-17T01:50:50.844Z,512.4615
2023-04-17T01:51:52.517Z,514.6923
2023-04-17T01:52:54.171Z,512.5385
2023-04-17T01:53:55.752Z,512.8461
2023-04-17T01:54:57.386Z,513.1539
2023-04-17T01:55:59.020Z,511.0000
2023-04-17T01:57:00.652Z,509.4615
2023-04-17T01:58:02.429Z,506.7692
2023-04-17T01:59:03.973Z,506.7692
2023-04-17T02:00:05.630Z,507.2308
2023-04-17T02:01:07.233Z,508.6923
2023-04-17T02:02:09.067Z,506.8462
2023-04-17T02:03:10.629Z,507.6154
2023-04-17T02:04:12.288Z,507.0000
2023-04-17T02:05:13.786Z,508.4615
2023-04-17T02:06:15.440Z,505.7692
2023-04-17T02:07:17.068Z,507.3846
2023-04-17T02:08:18.783Z,507.6923
2023-04-17T02:09:20.351Z,507.7692
2023-04-17T02:10:21.983Z,507.6923
2023-04-17T02:11:23.650Z,508.0000
2023-04-17T02:12:25.306Z,506.6154
2023-04-17T02:13:26.995Z,510.9231
2023-04-17T02:14:28.550Z,510.6923
2023-04-17T02:15:30.224Z,510.3846
2023-04-17T02:16:31.908Z,509.6154
2023-04-17T02:17:33.520Z,509.3077
2023-04-17T02:18:35.231Z,509.5385
2023-04-17T02:19:36.760Z,508.7692
2023-04-17T02:20:38.393Z,507.5385
2023-04-17T02:21:40.037Z,507.3846
2023-04-17T02:22:41.687Z,507.4615
2023-04-17T02:23:43.374Z,511.0000
2023-04-17T02:24:44.953Z,514.0000
2023-04-17T02:25:46.583Z,512.0769
2023-04-17T02:26:48.246Z,509.1538
2023-04-17T02:27:49.872Z,509.4615
2023-04-17T02:28:51.556Z,511.2308
2023-04-17T02:29:53.149Z,511.1538
2023-04-17T02:30:54.972Z,508.3077
2023-04-17T02:31:56.566Z,508.1538
2023-04-17T02:32:58.150Z,508.0000
2023-04-17T02:33:59.759Z,507.7692
2023-04-17T02:35:01.343Z,508.0000
2023-04-17T02:36:02.995Z,507.3846
2023-04-17T02:37:04.652Z,507.1538
2023-04-17T02:38:06.278Z,508.2308
2023-04-17T02:39:07.946Z,507.7692
2023-04-17T02:40:09.561Z,503.8462
2023-04-17T02:41:11.171Z,503.0769
2023-04-17T02:42:12.861Z,504.3846
2023-04-17T02:43:14.472Z,507.0000
2023-04-17T02:44:16.166Z,506.6154
2023-04-17T02:45:17.779Z,505.3077
2023-04-17T02:46:19.440Z,506.4615
2023-04-17T02:47:21.204Z,507.7692
2023-04-17T02:48:22.580Z,505.4615
2023-04-17T02:49:24.270Z,504.4615
2023-04-17T02:50:25.944Z,505.6923
2023-04-17T02:51:27.580Z,507.3846
2023-04-17T02:52:29.221Z,509.5385
2023-04-17T02:53:30.859Z,509.1538
2023-04-17T02:54:32.584Z,508.6154
2023-04-17T02:55:34.269Z,510.0769
2023-04-17T02:56:35.721Z,510.2308
2023-04-17T02:57:37.403Z,508.0000
2023-04-17T02:58:38.999Z,508.2308
2023-04-17T02:59:40.837Z,507.0769
2023-04-17T03:00:42.335Z,509.4615
2023-04-17T03:01:43.968Z,512.0769
2023-04-17T03:02:45.709Z,513.6154
2023-04-17T03:03:47.272Z,515.4615
2023-04-17T03:04:48.887Z,514.8461
2023-04-17T03:05:50.485Z,514.5385
2023-04-17T03:06:52.375Z,518.6923
2023-04-17T03:07:53.950Z,520.5385
2023-04-17T03:08:55.460Z,520.6923
2023-04-17T03:09:57.113Z,517.6923
2023-04-17T03:10:58.694Z,515.0769
2023-04-17T03:12:00.336Z,513.8461
2023-04-17T03:13:02.000Z,515.2308
2023-04-17T03:14:03.634Z,515.0769
2023-04-17T03:15:06.417Z,516.3077
2023-04-17T03:16:06.994Z,515.4615
2023-04-17T03:17:08.589Z,514.3846
2023-04-17T03:18:10.225Z,514.5385
2023-04-17T03:19:12.091Z,511.3077
2023-04-17T03:20:13.519Z,512.0769
2023-04-17T03:21:15.132Z,511.7692
2023-04-17T03:22:16.797Z,512.3077
2023-04-17T03:23:18.426Z,516.3846
2023-04-17T03:24:20.069Z,517.7692
2023-04-17T03:25:21.732Z,516.7692
2023-04-17T03:26:23.343Z,515.3077
2023-04-17T03:27:25.005Z,512.7692
2023-04-17T03:28:26.646Z,509.5385
2023-04-17T03:29:28.285Z,511.1538
2023-04-17T03:30:29.986Z,513.1539
2023-04-17T03:31:32.223Z,515.7692
2023-04-17T03:32:33.346Z,515.0769
2023-04-17T03:33:34.946Z,517.1539
2023-04-17T03:34:36.562Z,519.0000
2023-04-17T03:35:38.247Z,523.0000
2023-04-17T03:36:39.825Z,523.0769
2023-04-17T03:37:41.469Z,524.0000
2023-04-17T03:38:43.125Z,526.6154
2023-04-17T03:39:44.779Z,528.0769
2023-04-17T03:40:46.489Z,528.2308
2023-04-17T03:41:48.048Z,526.4615
2023-04-17T03:42:49.706Z,526.9231
2023-04-17T03:43:51.361Z,526.7692
2023-04-17T03:44:53.016Z,522.8461
2023-04-17T03:45:54.764Z,522.0000
2023-04-17T03:46:56.338Z,518.3077
2023-04-17T03:47:57.941Z,515.1539
2023-04-17T03:48:59.967Z,516.0000
2023-04-17T03:50:01.234Z,518.6923
2023-04-17T03:51:02.969Z,524.0000
2023-04-17T03:52:04.501Z,522.4615
2023-04-17T03:53:06.151Z,519.3846
2023-04-17T03:54:07.799Z,517.0769
2023-04-17T03:55:09.498Z,511.3846
2023-04-17T03:56:11.174Z,512.0000
2023-04-17T03:57:12.731Z,511.5385
2023-04-17T03:58:14.391Z,512.9231
2023-04-17T03:59:15.993Z,513.5385
2023-04-17T04:00:17.583Z,517.8461
2023-04-17T04:01:19.297Z,516.8461
2023-04-17T04:02:20.939Z,516.8461
2023-04-17T04:03:22.623Z,517.0769
2023-04-17T04:04:24.341Z,518.1539
2023-04-17T04:05:25.828Z,520.5385
2023-04-17T04:06:27.401Z,523.8461
2023-04-17T04:07:29.180Z,526.1539
2023-04-17T04:08:30.679Z,522.2308
2023-04-17T04:09:32.342Z,525.6923
2023-04-17T04:10:33.962Z,525.0769
2023-04-17T04:11:35.617Z,520.7692
2023-04-17T04:12:37.281Z,520.7692
2023-04-17T04:13:38.877Z,518.9231
2023-04-17T04:14:41.776Z,520.5385
2023-04-17T04:15:42.193Z,520.8461
2023-04-17T04:16:43.814Z,520.8461
2023-04-17T04:17:45.469Z,520.7692
2023-04-17T04:18:47.081Z,520.1539
2023-04-17T04:19:48.731Z,518.4615
2023-04-17T04:20:50.376Z,519.9231
2023-04-17T04:21:52.034Z,526.1539
2023-04-17T04:22:53.743Z,530.3077
2023-04-17T04:23:55.312Z,526.9231
2023-04-17T04:24:56.960Z,524.6923
2023-04-17T04:25:58.614Z,525.3077
2023-04-17T04:27:00.278Z,522.0000
2023-04-17T04:28:01.881Z,521.1539
2023-04-17T04:29:03.479Z,523.3077
2023-04-17T04:30:05.258Z,525.8461
2023-04-17T04:31:06.870Z,524.4615
2023-04-17T04:32:08.410Z,525.5385
2023-04-17T04:33:10.076Z,525.3846
2023-04-17T04:34:11.720Z,521.7692
2023-04-17T04:35:13.438Z,522.6923
2023-04-17T04:36:15.141Z,524.6154
2023-04-17T04:37:16.719Z,523.3077
2023-04-17T04:38:18.359Z,522.9231
2023-04-17T04:39:20.039Z,527.5385
2023-04-17T04:40:21.545Z,525.6154
2023-04-17T04:41:23.219Z,524.3077
2023-04-17T04:42:24.840Z,525.0769
2023-04-17T04:43:26.491Z,525.3077
2023-04-17T04:44:28.111Z,524.8461
2023-04-17T04:45:29.767Z,523.1539
2023-04-17T04:46:31.516Z,524.0000
2023-04-17T04:47:33.078Z,524.0769
2023-04-17T04:48:34.690Z,524.6923
2023-04-17T04:49:36.359Z,526.0000
2023-04-17T04:50:37.993Z,526.8461
2023-04-17T04:51:39.671Z,524.6154
2023-04-17T04:52:41.311Z,521.5385
2023-04-17T04:53:42.939Z,520.1539
2023-04-17T04:54:44.574Z,519.3846
2023-04-17T04:55:46.211Z,520.0769
2023-04-17T04:56:47.916Z,521.3846
2023-04-17T04:57:49.510Z,523.5385
2023-04-17T04:58:51.156Z,524.2308
2023-04-17T04:59:52.815Z,522.6154
2023-04-17T05:00:54.584Z,522.5385
2023-04-17T05:01:56.183Z,523.3846
2023-04-17T05:02:57.859Z,524.3077
2023-04-17T05:03:59.466Z,523.3077
2023-04-17T05:05:01.129Z,523.9231
2023-04-17T05:06:02.642Z,528.8461
2023-04-17T05:07:04.385Z,533.0000
2023-04-17T05:08:05.942Z,532.3077
2023-04-17T05:09:07.601Z,531.6923
2023-04-17T05:10:09.247Z,530.3077
2023-04-17T05:11:10.962Z,529.5385
2023-04-17T05:12:12.541Z,529.2308
2023-04-17T05:13:14.152Z,528.6154
2023-04-17T05:14:15.780Z,528.6154
2023-04-17T05:15:17.423Z,526.0000
2023-04-17T05:16:19.167Z,523.6154
2023-04-17T05:17:20.955Z,523.4615
2023-04-17T05:18:22.505Z,524.4615
2023-04-17T05:19:24.140Z,525.7692
2023-04-17T05:20:25.762Z,524.9231
2023-04-17T05:21:28.744Z,524.8461
2023-04-17T05:22:29.104Z,527.2308
2023-04-17T05:23:30.684Z,534.6923
2023-04-17T05:24:32.366Z,533.7692
2023-04-17T05:25:33.962Z,527.5385
2023-04-17T05:26:35.634Z,527.6154
2023-04-17T05:27:37.384Z,529.7692
2023-04-17T05:28:38.913Z,528.9231
2023-04-17T05:29:40.540Z,527.0000
2023-04-17T05:30:42.192Z,526.0769
2023-04-17T05:31:43.832Z,525.6154
2023-04-17T05:32:45.492Z,527.6154
2023-04-17T05:33:47.139Z,527.7692
2023-04-17T05:34:48.706Z,526.4615
2023-04-17T05:35:50.340Z,527.3077
2023-04-17T05:36:51.988Z,526.7692
2023-04-17T05:37:53.657Z,530.2308
2023-04-17T05:38:55.263Z,530.3846
2023-04-17T05:39:56.900Z,529.9231
2023-04-17T05:40:58.573Z,531.0769
2023-04-17T05:42:00.180Z,535.1539
2023-04-17T05:43:01.856Z,535.7692
2023-04-17T05:44:03.509Z,533.6154
2023-04-17T05:45:05.091Z,530.2308
2023-04-17T05:46:06.786Z,531.2308
2023-04-17T05:47:08.385Z,533.7692
2023-04-17T05:48:10.087Z,538.7692
2023-04-17T05:49:11.918Z,537.7692
2023-04-17T05:50:13.299Z,535.8461
2023-04-17T05:51:14.941Z,532.6923
2023-04-17T05:52:16.495Z,531.8461
2023-04-17T05:53:18.181Z,532.2308
2023-04-17T05:54:19.925Z,531.3077
2023-04-17T05:55:21.500Z,529.6923
2023-04-17T05:56:23.132Z,529.6923
2023-04-17T05:57:24.841Z,532.7692
2023-04-17T05:58:26.438Z,532.5385
2023-04-17T05:59:28.069Z,529.8461
2023-04-17T06:00:29.707Z,529.0769
2023-04-17T06:01:31.418Z,528.7692
2023-04-17T06:02:33.087Z,529.9231
2023-04-17T06:03:34.815Z,530.3077
2023-04-17T06:04:36.449Z,529.4615
2023-04-17T06:05:38.033Z,526.2308
2023-04-17T06:06:39.569Z,526.0769
2023-04-17T06:07:41.165Z,530.8461
2023-04-17T06:08:42.822Z,532.3846
2023-04-17T06:09:44.404Z,532.6154
2023-04-17T06:10:46.140Z,534.2308
2023-04-17T06:11:47.712Z,533.1539
2023-04-17T06:12:49.323Z,530.6154
2023-04-17T06:13:51.064Z,528.3846
2023-04-17T06:14:52.629Z,529.5385
2023-04-17T06:15:54.257Z,529.5385
2023-04-17T06:16:55.926Z,528.7692
2023-04-17T06:17:57.592Z,525.9231
2023-04-17T06:18:59.261Z,525.8461
2023-04-17T06:20:00.809Z,524.0769
2023-04-17T06:21:02.529Z,523.8461
2023-04-17T06:22:04.123Z,523.4615
2023-04-17T06:23:05.730Z,523.1539
2023-04-17T06:24:07.327Z,525.3077
2023-04-17T06:25:08.932Z,525.2308
2023-04-17T06:26:10.582Z,521.1539
2023-04-17T06:27:12.201Z,515.7692
2023-04-17T06:28:13.901Z,516.8461
2023-04-17T06:29:15.557Z,517.3846
2023-04-17T06:30:17.107Z,519.9231
2023-04-17T06:31:18.789Z,522.0000
2023-04-17T06:32:20.459Z,521.4615
2023-04-17T06:33:23.112Z,518.8461
2023-04-17T06:34:23.746Z,518.5385
2023-04-17T06:35:25.355Z,516.3077
2023-04-17T06:36:27.011Z,513.4615
2023-04-17T06:37:28.627Z,514.1539
2023-04-17T06:38:30.441Z,514.7692
2023-04-17T06:39:31.978Z,513.1539
2023-04-17T06:40:33.527Z,511.2308
2023-04-17T06:41:35.187Z,511.0769
2023-04-17T06:42:36.843Z,510.4615
2023-04-17T06:43:38.618Z,511.3846
2023-04-17T06:44:40.143Z,512.6154
2023-04-17T06:45:41.762Z,512.8461
2023-04-17T06:46:43.394Z,511.7692
2023-04-17T06:47:45.073Z,514.1539
2023-04-17T06:48:46.696Z,516.0769
2023-04-17T06:49:48.335Z,516.1539
2023-04-17T06:50:49.927Z,515.0000
2023-04-17T06:51:51.579Z,515.0000
2023-04-17T06:52:53.206Z,514.9231
2023-04-17T06:53:54.843Z,511.4615
2023-04-17T06:54:56.540Z,510.6923
2023-04-17T06:55:58.123Z,511.2308
2023-04-17T06:56:59.739Z,515.4615
2023-04-17T06:58:01.409Z,518.1539
2023-04-17T06:59:03.247Z,518.9231
2023-04-17T07:00:04.708Z,520.4615
2023-04-17T07:01:06.333Z,520.9231
2023-04-17T07:02:07.991Z,519.8461
2023-04-17T07:03:09.688Z,520.6923
2023-04-17T07:04:11.300Z,521.6923
2023-04-17T07:05:12.972Z,521.4615
2023-04-17T07:06:15.415Z,513.6923
2023-04-17T07:07:16.274Z,512.7692
2023-04-17T07:08:17.887Z,515.4615
2023-04-17T07:09:19.514Z,517.2308
2023-04-17T07:10:21.256Z,516.0000
2023-04-17T07:11:22.825Z,513.8461
2023-04-17T07:12:24.437Z,516.2308
2023-04-17T07:13:26.117Z,518.6154
2023-04-17T07:14:27.776Z,521.6154
2023-04-17T07:15:29.468Z,520.3077
2023-04-17T07:16:31.108Z,520.8461
2023-04-17T07:17:32.689Z,519.9231
2023-04-17T07:18:34.328Z,520.0769
2023-04-17T07:19:35.920Z,517.0769
2023-04-17T07:20:37.586Z,515.8461
2023-04-17T07:21:39.249Z,518.2308
2023-04-17T07:22:40.862Z,519.4615
2023-04-17T07:23:42.525Z,518.4615
2023-04-17T07:24:44.128Z,520.4615
2023-04-17T07:25:45.855Z,523.5385
2023-04-17T07:26:47.463Z,524.5385
2023-04-17T07:27:49.081Z,524.9231
2023-04-17T07:28:50.756Z,523.6154
2023-04-17T07:29:52.395Z,523.4615
2023-04-17T07:30:54.053Z,523.7692
2023-04-17T07:31:55.693Z,525.0000
2023-04-17T07:32:57.333Z,525.3846
2023-04-17T07:33:58.932Z,523.3846
2023-04-17T07:35:00.516Z,525.0000
2023-04-17T07:36:02.336Z,525.6154
2023-04-17T07:37:03.847Z,518.4615
2023-04-17T07:38:05.473Z,520.3077
2023-04-17T07:39:07.084Z,520.9231
2023-04-17T07:40:08.731Z,523.0000
2023-04-17T07:41:10.436Z,522.0769
2023-04-17T07:42:12.021Z,524.6154
2023-04-17T07:43:13.677Z,530.6154
2023-04-17T07:44:15.285Z,530.0769
2023-04-17T07:45:16.965Z,531.5385
2023-04-17T07:46:18.628Z,531.3846
2023-04-17T07:47:20.360Z,531.6923
2023-04-17T07:48:21.877Z,532.9231
2023-04-17T07:49:23.561Z,534.6923
2023-04-17T07:50:25.222Z,534.1539
2023-04-17T07:51:26.921Z,532.7692
2023-04-17T07:52:28.517Z,528.6154
2023-04-17T07:53:30.140Z,527.8461
2023-04-17T07:54:31.790Z,528.4615
2023-04-17T07:55:33.536Z,529.4615
2023-04-17T07:56:35.041Z,529.0769
2023-04-17T07:57:36.655Z,528.0000
2023-04-17T07:58:38.306Z,525.6154
2023-04-17T07:59:39.946Z,523.9231
2023-04-17T08:00:41.550Z,522.3077
2023-04-17T08:01:43.276Z,520.6923
2023-04-17T08:02:45.087Z,522.7692
2023-04-17T08:03:46.737Z,522.8461
2023-04-17T08:04:48.239Z,522.2308
2023-04-17T08:05:49.901Z,520.6154
2023-04-17T08:06:51.521Z,522.0000
2023-04-17T08:07:53.001Z,524.6154
2023-04-17T08:08:54.631Z,524.4615
2023-04-17T08:09:56.266Z,523.3846
2023-04-17T08:10:57.941Z,521.3077
2023-04-17T08:11:59.599Z,522.0769
2023-04-17T08:13:01.245Z,522.0769
2023-04-17T08:14:02.833Z,520.5385
2023-04-17T08:15:04.538Z,521.4615
2023-04-17T08:16:06.167Z,516.6154
2023-04-17T08:17:07.926Z,514.7692
2023-04-17T08:18:09.526Z,517.1539
2023-04-17T08:19:11.289Z,517.0000
2023-04-17T08:20:12.736Z,518.6154
2023-04-17T08:21:14.357Z,519.5385
2023-04-17T08:22:16.028Z,523.4615
2023-04-17T08:23:17.618Z,522.5385
2023-04-17T08:24:20.000Z,520.9231
2023-04-17T08:25:20.908Z,517.3846
2023-04-17T08:26:22.549Z,516.1539
2023-04-17T08:27:24.244Z,515.1539
2023-04-17T08:28:26.044Z,516.9231
2023-04-17T08:29:27.489Z,511.5385
2023-04-17T08:30:29.115Z,509.4615
2023-04-17T08:31:30.779Z,511.6923
2023-04-17T08:32:32.429Z,516.4615
2023-04-17T08:33:34.022Z,520.8461
2023-04-17T08:34:35.716Z,528.6923
2023-04-17T08:35:37.327Z,530.4615
2023-04-17T08:36:38.923Z,530.7692
2023-04-17T08:37:40.630Z,527.7692
2023-04-17T08:38:42.234Z,522.7692
2023-04-17T08:39:43.912Z,525.4615
2023-04-17T08:40:45.498Z,524.0769
2023-04-17T08:41:47.521Z,526.1539
2023-04-17T08:42:48.824Z,528.6154
2023-04-17T08:43:50.447Z,526.3077
2023-04-17T08:44:52.077Z,523.2308
2023-04-17T08:45:54.065Z,523.6923
2023-04-17T08:46:55.367Z,522.6154
2023-04-17T08:47:57.038Z,523.8461
2023-04-17T08:48:58.592Z,519.0000
2023-04-17T08:50:00.243Z,515.1539
2023-04-17T08:51:02.006Z,512.4615
2023-04-17T08:52:03.603Z,514.3846
2023-04-17T08:53:05.305Z,514.2308
2023-04-17T08:54:06.976Z,514.5385
2023-04-17T08:55:08.551Z,516.3077
2023-04-17T08:56:10.157Z,517.8461
2023-04-17T08:57:11.796Z,517.6154
2023-04-17T08:58:13.431Z,513.7692
2023-04-17T08:59:15.096Z,512.0000
2023-04-17T09:00:16.749Z,509.7692
2023-04-17T09:01:18.432Z,510.0769
2023-04-17T09:02:20.135Z,510.6923
2023-04-17T09:03:21.836Z,512.8461
2023-04-17T09:04:23.465Z,516.8461
2023-04-17T09:05:24.930Z,516.7692
2023-04-17T09:06:26.563Z,514.3077
2023-04-17T09:07:28.127Z,513.4615
2023-04-17T09:08:29.783Z,508.5385
2023-04-17T09:09:31.391Z,503.3077
2023-04-17T09:10:33.349Z,502.9231
2023-04-17T09:11:34.688Z,501.8462
2023-04-17T09:12:36.334Z,506.1538
2023-04-17T09:13:37.996Z,509.2308
2023-04-17T09:14:39.584Z,509.2308
2023-04-17T09:15:41.343Z,511.4615
2023-04-17T09:16:42.853Z,516.3846
2023-04-17T09:17:44.625Z,516.6154
2023-04-17T09:18:46.170Z,517.6154
2023-04-17T09:19:47.785Z,517.2308
2023-04-17T09:20:49.481Z,518.6923
2023-04-17T09:21:51.122Z,518.8461
2023-04-17T09:22:52.777Z,515.7692
2023-04-17T09:23:54.446Z,512.0000
2023-04-17T09:24:57.614Z,508.5385
2023-04-17T09:25:57.716Z,512.0769
2023-04-17T09:26:59.357Z,507.3846
2023-04-17T09:28:00.955Z,505.3846
2023-04-17T09:29:02.633Z,503.8462
2023-04-17T09:30:04.264Z,501.4615
2023-04-17T09:31:05.951Z,498.0769
2023-04-17T09:32:07.572Z,496.5385
2023-04-17T09:33:09.181Z,494.6154
2023-04-17T09:34:10.882Z,494.5385
2023-04-17T09:35:12.471Z,492.6923
2023-04-17T09:36:14.100Z,499.2308
2023-04-17T09:37:15.747Z,503.6154
2023-04-17T09:38:17.559Z,505.6923
2023-04-17T09:39:19.024Z,503.9231
2023-04-17T09:40:20.651Z,504.9231
2023-04-17T09:41:22.284Z,507.0000
2023-04-17T09:42:23.914Z,500.0000
2023-04-17T09:43:25.547Z,497.9231
2023-04-17T09:44:27.210Z,499.4615
2023-04-17T09:45:28.814Z,501.3077
2023-04-17T09:46:30.561Z,495.0769
2023-04-17T09:47:32.147Z,490.7692
2023-04-17T09:48:33.719Z,485.7692
2023-04-17T09:49:35.418Z,486.7692
2023-04-17T09:50:38.625Z,487.0769
2023-04-17T09:51:38.613Z,493.2308
2023-04-17T09:52:40.270Z,494.3077
2023-04-17T09:53:41.951Z,493.2308
2023-04-17T09:54:43.595Z,493.4615
2023-04-17T09:55:45.215Z,494.0769
2023-04-17T09:56:47.304Z,505.2308
2023-04-17T09:57:48.465Z,508.3846
2023-04-17T09:58:50.081Z,506.8462
2023-04-17T09:59:51.755Z,503.0769
2023-04-17T10:00:53.446Z,499.3077
2023-04-17T10:01:55.346Z,493.0769
2023-04-17T10:02:56.885Z,488.0000
2023-04-17T10:03:58.377Z,490.4615
2023-04-17T10:04:59.919Z,489.0000
2023-04-17T10:06:01.554Z,484.4615
2023-04-17T10:07:03.162Z,477.8462
2023-04-17T10:08:04.823Z,476.6154
2023-04-17T10:09:06.425Z,473.5385
2023-04-17T10:10:08.124Z,474.6154
2023-04-17T10:11:09.727Z,472.6923
2023-04-17T10:12:11.360Z,471.5385
2023-04-17T10:13:12.984Z,468.0769
2023-04-17T10:14:14.866Z,463.0000
2023-04-17T10:15:16.292Z,463.3846
2023-04-17T10:16:17.933Z,465.8462
2023-04-17T10:17:19.551Z,466.6923
2023-04-17T10:18:21.167Z,466.9231
2023-04-17T10:19:23.174Z,469.2308
2023-04-17T10:20:24.493Z,467.7692
2023-04-17T10:21:26.108Z,468.0769
2023-04-17T10:22:27.731Z,469.2308
2023-04-17T10:23:29.375Z,466.0769
2023-04-17T10:24:31.051Z,467.6154
2023-04-17T10:25:32.693Z,466.3846
2023-04-17T10:26:34.291Z,463.1538
2023-04-17T10:27:36.981Z,462.1538
2023-04-17T10:28:37.677Z,460.1538
2023-04-17T10:29:39.322Z,457.3077
2023-04-17T10:30:43.318Z,456.5385
2023-04-17T10:31:42.649Z,460.4615
2023-04-17T10:32:44.351Z,459.5385
2023-04-17T10:33:45.955Z,458.0769
2023-04-17T10:34:47.564Z,454.8462
2023-04-17T10:35:49.279Z,454.6923
2023-04-17T10:36:50.825Z,457.0000
2023-04-17T10:37:52.462Z,457.4615
2023-04-17T10:38:54.076Z,458.2308
2023-04-17T10:39:55.724Z,459.6923
2023-04-17T10:40:58.894Z,458.7692
2023-04-17T10:41:58.990Z,459.1538
2023-04-17T10:43:00.691Z,459.0769
2023-04-17T10:44:02.276Z,459.6154
2023-04-17T10:45:03.897Z,457.0769
2023-04-17T10:46:05.613Z,454.9231
2023-04-17T10:47:07.198Z,452.8462
2023-04-17T10:48:08.910Z,450.9231
2023-04-17T10:49:10.851Z,449.1538
2023-04-17T10:50:12.196Z,449.3846
2023-04-17T10:51:13.790Z,450.0000
2023-04-17T10:52:15.367Z,450.4615
2023-04-17T10:53:17.023Z,451.6923
2023-04-17T10:54:18.752Z,452.0000
2023-04-17T10:55:20.315Z,453.5385
2023-04-17T10:56:21.972Z,452.1538
2023-04-17T10:57:23.552Z,452.3846
2023-04-17T10:58:31.453Z,453.8462
2023-04-17T10:59:26.852Z,453.7692
2023-04-17T11:00:28.487Z,452.0000
2023-04-17T11:01:30.247Z,450.8462
2023-04-17T11:02:31.908Z,450.6154
2023-04-17T11:03:33.505Z,452.0769
2023-04-17T11:04:35.050Z,452.1538
2023-04-17T11:05:36.597Z,450.6154
2023-04-17T11:06:38.254Z,451.2308
2023-04-17T11:07:39.894Z,450.7692
2023-04-17T11:08:41.511Z,450.6154
2023-04-17T11:09:43.111Z,452.2308
2023-04-17T11:10:44.792Z,452.1538
2023-04-17T11:11:46.494Z,451.3846
2023-04-17T11:12:48.095Z,455.6923
2023-04-17T11:13:49.715Z,455.7692
2023-04-17T11:14:51.346Z,456.8462
2023-04-17T11:15:53.002Z,457.1538
2023-04-17T11:16:54.655Z,457.6923
2023-04-17T11:17:56.299Z,459.3077
2023-04-17T11:18:57.911Z,462.8462
2023-04-17T11:19:59.566Z,466.3077
2023-04-17T11:21:01.199Z,465.6923
2023-04-17T11:22:02.960Z,463.6923
2023-04-17T11:23:04.501Z,465.7692
2023-04-17T11:24:06.115Z,464.6923
2023-04-17T11:25:07.809Z,452.7692
2023-04-17T11:26:09.421Z,449.0769
2023-04-17T11:27:11.097Z,447.4615
2023-04-17T11:28:12.706Z,448.6154
2023-04-17T11:29:14.592Z,452.0769
2023-04-17T11:30:15.988Z,453.6154
2023-04-17T11:31:19.775Z,454.2308
2023-04-17T11:32:19.344Z,450.7692
2023-04-17T11:33:20.916Z,448.1538
2023-04-17T11:34:22.656Z,449.0000
2023-04-17T11:35:24.186Z,451.3846
2023-04-17T11:36:25.770Z,447.1538
2023-04-17T11:37:27.459Z,444.1538
2023-04-17T11:38:29.061Z,444.9231
2023-04-17T11:39:30.733Z,448.5385
2023-04-17T11:40:32.357Z,448.1538
2023-04-17T11:41:34.026Z,452.6154
2023-04-17T11:42:35.667Z,453.6154
2023-04-17T11:43:37.301Z,454.4615
2023-04-17T11:44:38.888Z,451.6154
2023-04-17T11:45:40.575Z,462.3077
2023-04-17T11:46:42.385Z,467.5385
2023-04-17T11:47:43.975Z,462.2308
2023-04-17T11:48:45.446Z,456.7692
2023-04-17T11:49:47.182Z,456.3077
2023-04-17T11:50:48.946Z,456.7692
2023-04-17T11:51:50.405Z,451.0000
2023-04-17T11:52:52.099Z,444.0769
2023-04-17T11:53:53.686Z,446.0769
2023-04-17T11:54:55.426Z,445.8462
2023-04-17T11:55:56.948Z,444.3846
2023-04-17T11:56:58.604Z,448.0769
2023-04-17T11:58:00.287Z,454.5385
2023-04-17T11:59:01.924Z,455.1538
2023-04-17T12:00:03.525Z,448.3077
2023-04-17T12:01:05.169Z,443.7692
2023-04-17T12:02:07.182Z,442.8462
2023-04-17T12:03:08.634Z,445.7692
2023-04-17T12:04:10.293Z,449.1538